Terminal Aerodrome Forecast
Issued by NWS Sterling, VA

Current Version | Previous Version | Text Only | Print | Product List | Glossary Off
Versions: 1 2 3 4 5 6 7 8 9 10 11 12 13 14

000
FTUS41 KLWX 080524
TAFMRB
TAF
KMRB 080524Z 0806/0906 00000KT P6SM FEW250
     FM081400 27005KT P6SM BKN100
     FM081600 27010KT P6SM BKN090
     FM081700 28013G22KT P6SM SCT100=

USA.gov is the U.S. government's official web portal to all federal, state and local government web resources and services.